sensor_id;sensor_type;location;lat;lon;timestamp;P1;durP1;ratioP1;P2;durP2;ratioP2
26106;SDS011;13866;50.748;12.630;2024-01-07T00:01:22;69.53;;;33.07;;
26106;SDS011;13866;50.748;12.630;2024-01-07T00:03:48;60.00;;;30.70;;
26106;SDS011;13866;50.748;12.630;2024-01-07T00:06:13;65.47;;;30.67;;
26106;SDS011;13866;50.748;12.630;2024-01-07T00:08:39;63.43;;;30.70;;
26106;SDS011;13866;50.748;12.630;2024-01-07T00:11:04;74.37;;;30.60;;
26106;SDS011;13866;50.748;12.630;2024-01-07T00:13:29;53.63;;;29.37;;
26106;SDS011;13866;50.748;12.630;2024-01-07T00:15:55;53.33;;;28.77;;
26106;SDS011;13866;50.748;12.630;2024-01-07T00:18:21;63.20;;;31.07;;
26106;SDS011;13866;50.748;12.630;2024-01-07T00:20:47;104.53;;;32.07;;
26106;SDS011;13866;50.748;12.630;2024-01-07T00:23:12;69.03;;;32.90;;
26106;SDS011;13866;50.748;12.630;2024-01-07T00:25:38;60.60;;;32.97;;
26106;SDS011;13866;50.748;12.630;2024-01-07T00:28:03;66.17;;;30.63;;
26106;SDS011;13866;50.748;12.630;2024-01-07T00:30:29;83.73;;;33.93;;
26106;SDS011;13866;50.748;12.630;2024-01-07T00:32:54;101.13;;;32.77;;
26106;SDS011;13866;50.748;12.630;2024-01-07T00:35:20;60.93;;;31.23;;
26106;SDS011;13866;50.748;12.630;2024-01-07T00:37:45;82.17;;;30.27;;
26106;SDS011;13866;50.748;12.630;2024-01-07T00:40:11;96.53;;;32.43;;
26106;SDS011;13866;50.748;12.630;2024-01-07T00:42:37;67.73;;;32.73;;
26106;SDS011;13866;50.748;12.630;2024-01-07T00:45:02;63.77;;;28.27;;
26106;SDS011;13866;50.748;12.630;2024-01-07T00:47:28;72.13;;;31.40;;
26106;SDS011;13866;50.748;12.630;2024-01-07T00:49:53;82.43;;;30.13;;
26106;SDS011;13866;50.748;12.630;2024-01-07T00:52:19;61.40;;;31.27;;
26106;SDS011;13866;50.748;12.630;2024-01-07T00:54:46;73.22;;;30.90;;
26106;SDS011;13866;50.748;12.630;2024-01-07T00:57:11;97.67;;;31.37;;
26106;SDS011;13866;50.748;12.630;2024-01-07T00:59:37;82.10;;;31.17;;
26106;SDS011;13866;50.748;12.630;2024-01-07T01:02:03;63.13;;;31.70;;
26106;SDS011;13866;50.748;12.630;2024-01-07T01:04:28;62.10;;;33.40;;
26106;SDS011;13866;50.748;12.630;2024-01-07T01:06:54;60.40;;;30.83;;
26106;SDS011;13866;50.748;12.630;2024-01-07T01:09:19;60.47;;;30.20;;
26106;SDS011;13866;50.748;12.630;2024-01-07T01:11:45;55.80;;;29.90;;
26106;SDS011;13866;50.748;12.630;2024-01-07T01:14:10;47.17;;;27.67;;
26106;SDS011;13866;50.748;12.630;2024-01-07T01:16:36;49.43;;;27.77;;
26106;SDS011;13866;50.748;12.630;2024-01-07T01:19:01;47.13;;;27.17;;
26106;SDS011;13866;50.748;12.630;2024-01-07T01:21:27;37.50;;;25.30;;
26106;SDS011;13866;50.748;12.630;2024-01-07T01:23:52;38.40;;;23.63;;
26106;SDS011;13866;50.748;12.630;2024-01-07T01:26:19;35.70;;;22.60;;
26106;SDS011;13866;50.748;12.630;2024-01-07T01:28:44;43.13;;;26.93;;
26106;SDS011;13866;50.748;12.630;2024-01-07T01:31:12;37.67;;;23.47;;
26106;SDS011;13866;50.748;12.630;2024-01-07T01:33:39;40.10;;;25.80;;
26106;SDS011;13866;50.748;12.630;2024-01-07T01:36:04;44.97;;;26.53;;
26106;SDS011;13866;50.748;12.630;2024-01-07T01:38:31;38.15;;;24.80;;
26106;SDS011;13866;50.748;12.630;2024-01-07T01:40:56;31.03;;;24.30;;
26106;SDS011;13866;50.748;12.630;2024-01-07T01:43:25;43.00;;;26.93;;
26106;SDS011;13866;50.748;12.630;2024-01-07T01:45:52;45.53;;;28.08;;
26106;SDS011;13866;50.748;12.630;2024-01-07T01:48:18;37.05;;;25.90;;
26106;SDS011;13866;50.748;12.630;2024-01-07T01:50:44;33.53;;;26.50;;
26106;SDS011;13866;50.748;12.630;2024-01-07T01:53:11;36.70;;;26.50;;
26106;SDS011;13866;50.748;12.630;2024-01-07T01:55:37;39.03;;;27.53;;
26106;SDS011;13866;50.748;12.630;2024-01-07T01:58:02;34.70;;;26.00;;
26106;SDS011;13866;50.748;12.630;2024-01-07T02:00:29;43.50;;;28.63;;
26106;SDS011;13866;50.748;12.630;2024-01-07T02:02:55;35.33;;;26.70;;
26106;SDS011;13866;50.748;12.630;2024-01-07T02:05:21;38.40;;;28.00;;
26106;SDS011;13866;50.748;12.630;2024-01-07T02:07:47;42.70;;;28.20;;
26106;SDS011;13866;50.748;12.630;2024-01-07T02:10:12;42.90;;;29.60;;
26106;SDS011;13866;50.748;12.630;2024-01-07T02:12:38;44.73;;;32.00;;
26106;SDS011;13866;50.748;12.630;2024-01-07T02:15:04;40.30;;;31.43;;
26106;SDS011;13866;50.748;12.630;2024-01-07T02:17:29;45.87;;;32.00;;
26106;SDS011;13866;50.748;12.630;2024-01-07T02:19:55;47.20;;;31.30;;
26106;SDS011;13866;50.748;12.630;2024-01-07T02:22:21;44.17;;;29.90;;
26106;SDS011;13866;50.748;12.630;2024-01-07T02:24:46;40.13;;;27.97;;
26106;SDS011;13866;50.748;12.630;2024-01-07T02:27:12;39.93;;;28.33;;
26106;SDS011;13866;50.748;12.630;2024-01-07T02:29:37;48.83;;;31.77;;
26106;SDS011;13866;50.748;12.630;2024-01-07T02:32:03;45.10;;;32.13;;
26106;SDS011;13866;50.748;12.630;2024-01-07T02:34:29;55.63;;;32.83;;
26106;SDS011;13866;50.748;12.630;2024-01-07T02:36:54;51.17;;;32.13;;
26106;SDS011;13866;50.748;12.630;2024-01-07T02:39:20;43.53;;;32.07;;
26106;SDS011;13866;50.748;12.630;2024-01-07T02:41:45;52.53;;;33.23;;
26106;SDS011;13866;50.748;12.630;2024-01-07T02:44:11;45.63;;;31.83;;
26106;SDS011;13866;50.748;12.630;2024-01-07T02:46:36;49.90;;;33.03;;
26106;SDS011;13866;50.748;12.630;2024-01-07T02:49:02;47.23;;;31.90;;
26106;SDS011;13866;50.748;12.630;2024-01-07T02:51:27;46.57;;;29.80;;
26106;SDS011;13866;50.748;12.630;2024-01-07T02:53:53;48.93;;;31.47;;
26106;SDS011;13866;50.748;12.630;2024-01-07T02:56:18;44.40;;;29.17;;
26106;SDS011;13866;50.748;12.630;2024-01-07T02:58:44;36.80;;;27.50;;
26106;SDS011;13866;50.748;12.630;2024-01-07T03:01:09;44.90;;;31.27;;
26106;SDS011;13866;50.748;12.630;2024-01-07T03:03:35;51.40;;;32.67;;
26106;SDS011;13866;50.748;12.630;2024-01-07T03:06:01;47.73;;;33.20;;
26106;SDS011;13866;50.748;12.630;2024-01-07T03:08:27;55.70;;;33.63;;
26106;SDS011;13866;50.748;12.630;2024-01-07T03:10:52;45.07;;;29.63;;
26106;SDS011;13866;50.748;12.630;2024-01-07T03:13:18;47.80;;;29.73;;
26106;SDS011;13866;50.748;12.630;2024-01-07T03:15:44;48.37;;;30.33;;
26106;SDS011;13866;50.748;12.630;2024-01-07T03:18:09;46.80;;;32.63;;
26106;SDS011;13866;50.748;12.630;2024-01-07T03:20:35;43.93;;;27.93;;
26106;SDS011;13866;50.748;12.630;2024-01-07T03:23:00;46.20;;;30.50;;
26106;SDS011;13866;50.748;12.630;2024-01-07T03:25:26;44.17;;;30.50;;
26106;SDS011;13866;50.748;12.630;2024-01-07T03:27:52;43.13;;;29.50;;
26106;SDS011;13866;50.748;12.630;2024-01-07T03:30:17;51.80;;;31.60;;
26106;SDS011;13866;50.748;12.630;2024-01-07T03:32:42;42.83;;;30.23;;
26106;SDS011;13866;50.748;12.630;2024-01-07T03:35:08;46.10;;;30.10;;
26106;SDS011;13866;50.748;12.630;2024-01-07T03:37:34;45.03;;;28.60;;
26106;SDS011;13866;50.748;12.630;2024-01-07T03:40:00;55.53;;;28.40;;
26106;SDS011;13866;50.748;12.630;2024-01-07T03:42:25;43.50;;;27.33;;
26106;SDS011;13866;50.748;12.630;2024-01-07T03:44:51;39.13;;;26.90;;
26106;SDS011;13866;50.748;12.630;2024-01-07T03:47:16;43.43;;;27.47;;
26106;SDS011;13866;50.748;12.630;2024-01-07T03:49:42;40.07;;;26.97;;
26106;SDS011;13866;50.748;12.630;2024-01-07T03:52:07;44.03;;;28.30;;
26106;SDS011;13866;50.748;12.630;2024-01-07T03:54:33;42.67;;;27.93;;
26106;SDS011;13866;50.748;12.630;2024-01-07T03:56:58;34.10;;;25.43;;
26106;SDS011;13866;50.748;12.630;2024-01-07T03:59:24;41.80;;;25.83;;
26106;SDS011;13866;50.748;12.630;2024-01-07T04:01:50;39.67;;;27.65;;
26106;SDS011;13866;50.748;12.630;2024-01-07T04:04:17;40.75;;;29.38;;
26106;SDS011;13866;50.748;12.630;2024-01-07T04:06:43;42.30;;;28.20;;
26106;SDS011;13866;50.748;12.630;2024-01-07T04:09:09;45.43;;;27.47;;
26106;SDS011;13866;50.748;12.630;2024-01-07T04:11:39;48.97;;;30.50;;
26106;SDS011;13866;50.748;12.630;2024-01-07T04:14:05;43.65;;;28.40;;
26106;SDS011;13866;50.748;12.630;2024-01-07T04:16:31;47.80;;;30.10;;
26106;SDS011;13866;50.748;12.630;2024-01-07T04:18:56;58.17;;;29.77;;
26106;SDS011;13866;50.748;12.630;2024-01-07T04:21:22;54.97;;;30.63;;
26106;SDS011;13866;50.748;12.630;2024-01-07T04:23:47;48.17;;;30.37;;
26106;SDS011;13866;50.748;12.630;2024-01-07T04:26:13;57.30;;;32.23;;
26106;SDS011;13866;50.748;12.630;2024-01-07T04:28:40;49.00;;;31.30;;
26106;SDS011;13866;50.748;12.630;2024-01-07T04:31:07;44.45;;;30.23;;
26106;SDS011;13866;50.748;12.630;2024-01-07T04:33:32;45.47;;;28.80;;
26106;SDS011;13866;50.748;12.630;2024-01-07T04:35:58;44.93;;;30.00;;
26106;SDS011;13866;50.748;12.630;2024-01-07T04:38:25;47.28;;;31.33;;
26106;SDS011;13866;50.748;12.630;2024-01-07T04:40:54;46.55;;;30.67;;
26106;SDS011;13866;50.748;12.630;2024-01-07T04:43:19;43.80;;;28.00;;
26106;SDS011;13866;50.748;12.630;2024-01-07T04:45:45;48.83;;;31.43;;
26106;SDS011;13866;50.748;12.630;2024-01-07T04:48:10;48.73;;;31.73;;
26106;SDS011;13866;50.748;12.630;2024-01-07T04:50:36;48.53;;;28.93;;
26106;SDS011;13866;50.748;12.630;2024-01-07T04:53:01;44.07;;;29.63;;
26106;SDS011;13866;50.748;12.630;2024-01-07T04:55:27;57.90;;;32.30;;
26106;SDS011;13866;50.748;12.630;2024-01-07T04:57:54;50.78;;;31.13;;
26106;SDS011;13866;50.748;12.630;2024-01-07T05:00:20;47.53;;;28.10;;
26106;SDS011;13866;50.748;12.630;2024-01-07T05:02:45;51.33;;;30.00;;
26106;SDS011;13866;50.748;12.630;2024-01-07T05:05:11;49.57;;;28.77;;
26106;SDS011;13866;50.748;12.630;2024-01-07T05:07:37;47.60;;;27.60;;
26106;SDS011;13866;50.748;12.630;2024-01-07T05:10:03;48.00;;;29.30;;
26106;SDS011;13866;50.748;12.630;2024-01-07T05:12:29;52.28;;;29.08;;
26106;SDS011;13866;50.748;12.630;2024-01-07T05:14:54;48.90;;;29.73;;
26106;SDS011;13866;50.748;12.630;2024-01-07T05:17:19;46.00;;;27.57;;
26106;SDS011;13866;50.748;12.630;2024-01-07T05:19:45;53.97;;;30.40;;
26106;SDS011;13866;50.748;12.630;2024-01-07T05:22:10;50.30;;;29.60;;
26106;SDS011;13866;50.748;12.630;2024-01-07T05:24:36;42.80;;;27.20;;
26106;SDS011;13866;50.748;12.630;2024-01-07T05:27:03;43.28;;;26.40;;
26106;SDS011;13866;50.748;12.630;2024-01-07T05:29:29;37.00;;;26.83;;
26106;SDS011;13866;50.748;12.630;2024-01-07T05:31:54;34.87;;;25.33;;
26106;SDS011;13866;50.748;12.630;2024-01-07T05:34:20;41.70;;;24.80;;
26106;SDS011;13866;50.748;12.630;2024-01-07T05:36:45;47.70;;;27.73;;
26106;SDS011;13866;50.748;12.630;2024-01-07T05:39:11;39.80;;;25.87;;
26106;SDS011;13866;50.748;12.630;2024-01-07T05:41:37;48.40;;;26.43;;
26106;SDS011;13866;50.748;12.630;2024-01-07T05:44:06;33.90;;;24.77;;
26106;SDS011;13866;50.748;12.630;2024-01-07T05:46:33;37.00;;;24.90;;
26106;SDS011;13866;50.748;12.630;2024-01-07T05:48:58;36.23;;;24.70;;
26106;SDS011;13866;50.748;12.630;2024-01-07T05:51:24;31.50;;;23.43;;
26106;SDS011;13866;50.748;12.630;2024-01-07T05:53:50;37.37;;;23.97;;
26106;SDS011;13866;50.748;12.630;2024-01-07T05:56:15;36.13;;;23.93;;
26106;SDS011;13866;50.748;12.630;2024-01-07T05:58:41;35.17;;;24.40;;
26106;SDS011;13866;50.748;12.630;2024-01-07T06:01:07;39.73;;;23.63;;
26106;SDS011;13866;50.748;12.630;2024-01-07T06:03:33;32.78;;;24.25;;
26106;SDS011;13866;50.748;12.630;2024-01-07T06:05:58;37.90;;;22.40;;
26106;SDS011;13866;50.748;12.630;2024-01-07T06:08:24;35.40;;;22.23;;
26106;SDS011;13866;50.748;12.630;2024-01-07T06:10:53;27.17;;;19.73;;
26106;SDS011;13866;50.748;12.630;2024-01-07T06:13:18;25.10;;;20.50;;
26106;SDS011;13866;50.748;12.630;2024-01-07T06:15:44;28.90;;;20.57;;
26106;SDS011;13866;50.748;12.630;2024-01-07T06:18:10;31.37;;;21.23;;
26106;SDS011;13866;50.748;12.630;2024-01-07T06:20:35;29.20;;;20.63;;
26106;SDS011;13866;50.748;12.630;2024-01-07T06:23:01;35.10;;;22.80;;
26106;SDS011;13866;50.748;12.630;2024-01-07T06:25:26;33.00;;;23.10;;
26106;SDS011;13866;50.748;12.630;2024-01-07T06:27:52;28.77;;;21.83;;
26106;SDS011;13866;50.748;12.630;2024-01-07T06:30:17;30.13;;;21.23;;
26106;SDS011;13866;50.748;12.630;2024-01-07T06:32:44;32.08;;;23.88;;
26106;SDS011;13866;50.748;12.630;2024-01-07T06:35:10;29.00;;;20.75;;
26106;SDS011;13866;50.748;12.630;2024-01-07T06:37:36;23.67;;;18.43;;
26106;SDS011;13866;50.748;12.630;2024-01-07T06:40:01;25.17;;;21.40;;
26106;SDS011;13866;50.748;12.630;2024-01-07T06:42:27;22.48;;;20.02;;
26106;SDS011;13866;50.748;12.630;2024-01-07T06:44:53;23.17;;;18.50;;
26106;SDS011;13866;50.748;12.630;2024-01-07T06:47:18;27.40;;;19.43;;
26106;SDS011;13866;50.748;12.630;2024-01-07T06:49:44;28.87;;;19.80;;
26106;SDS011;13866;50.748;12.630;2024-01-07T06:52:10;33.77;;;20.33;;
26106;SDS011;13866;50.748;12.630;2024-01-07T06:54:35;21.70;;;17.23;;
26106;SDS011;13866;50.748;12.630;2024-01-07T06:57:01;29.77;;;19.90;;
26106;SDS011;13866;50.748;12.630;2024-01-07T06:59:27;22.15;;;18.35;;
26106;SDS011;13866;50.748;12.630;2024-01-07T07:01:53;25.30;;;19.60;;
26106;SDS011;13866;50.748;12.630;2024-01-07T07:04:21;39.25;;;18.85;;
26106;SDS011;13866;50.748;12.630;2024-01-07T07:06:47;23.20;;;17.07;;
26106;SDS011;13866;50.748;12.630;2024-01-07T07:09:12;27.90;;;18.17;;
26106;SDS011;13866;50.748;12.630;2024-01-07T07:11:39;30.45;;;18.15;;
26106;SDS011;13866;50.748;12.630;2024-01-07T07:14:05;21.57;;;17.70;;
26106;SDS011;13866;50.748;12.630;2024-01-07T07:16:31;26.23;;;19.03;;
26106;SDS011;13866;50.748;12.630;2024-01-07T07:18:56;29.23;;;20.37;;
26106;SDS011;13866;50.748;12.630;2024-01-07T07:21:22;25.97;;;18.80;;
26106;SDS011;13866;50.748;12.630;2024-01-07T07:23:48;24.97;;;17.90;;
26106;SDS011;13866;50.748;12.630;2024-01-07T07:26:13;25.00;;;17.47;;
26106;SDS011;13866;50.748;12.630;2024-01-07T07:28:39;25.07;;;18.90;;
26106;SDS011;13866;50.748;12.630;2024-01-07T07:31:04;26.73;;;18.67;;
26106;SDS011;13866;50.748;12.630;2024-01-07T07:33:29;26.30;;;19.73;;
26106;SDS011;13866;50.748;12.630;2024-01-07T07:35:55;26.67;;;19.80;;
26106;SDS011;13866;50.748;12.630;2024-01-07T07:38:20;32.40;;;20.63;;
26106;SDS011;13866;50.748;12.630;2024-01-07T07:40:46;26.00;;;17.80;;
26106;SDS011;13866;50.748;12.630;2024-01-07T07:43:17;25.83;;;16.70;;
26106;SDS011;13866;50.748;12.630;2024-01-07T07:45:43;20.52;;;16.23;;
26106;SDS011;13866;50.748;12.630;2024-01-07T07:48:09;16.80;;;14.17;;
26106;SDS011;13866;50.748;12.630;2024-01-07T07:50:34;21.57;;;15.47;;
26106;SDS011;13866;50.748;12.630;2024-01-07T07:53:00;15.77;;;14.03;;
26106;SDS011;13866;50.748;12.630;2024-01-07T07:55:25;18.13;;;16.20;;
26106;SDS011;13866;50.748;12.630;2024-01-07T07:57:52;16.05;;;14.65;;
26106;SDS011;13866;50.748;12.630;2024-01-07T08:00:17;20.87;;;12.53;;
26106;SDS011;13866;50.748;12.630;2024-01-07T08:02:43;16.87;;;13.27;;
26106;SDS011;13866;50.748;12.630;2024-01-07T08:05:08;15.63;;;14.23;;
26106;SDS011;13866;50.748;12.630;2024-01-07T08:07:34;15.23;;;13.63;;
26106;SDS011;13866;50.748;12.630;2024-01-07T08:09:59;17.70;;;14.27;;
26106;SDS011;13866;50.748;12.630;2024-01-07T08:12:25;19.23;;;13.47;;
26106;SDS011;13866;50.748;12.630;2024-01-07T08:14:50;23.77;;;15.70;;
26106;SDS011;13866;50.748;12.630;2024-01-07T08:17:16;20.30;;;13.10;;
26106;SDS011;13866;50.748;12.630;2024-01-07T08:19:42;17.83;;;14.43;;
26106;SDS011;13866;50.748;12.630;2024-01-07T08:22:07;18.57;;;13.47;;
26106;SDS011;13866;50.748;12.630;2024-01-07T08:24:34;13.70;;;12.60;;
26106;SDS011;13866;50.748;12.630;2024-01-07T08:26:59;14.63;;;12.43;;
26106;SDS011;13866;50.748;12.630;2024-01-07T08:29:26;13.82;;;12.52;;
26106;SDS011;13866;50.748;12.630;2024-01-07T08:31:51;17.10;;;14.00;;
26106;SDS011;13866;50.748;12.630;2024-01-07T08:34:17;14.20;;;12.90;;
26106;SDS011;13866;50.748;12.630;2024-01-07T08:36:43;11.73;;;10.73;;
26106;SDS011;13866;50.748;12.630;2024-01-07T08:39:08;13.70;;;12.30;;
26106;SDS011;13866;50.748;12.630;2024-01-07T08:41:34;12.80;;;11.50;;
26106;SDS011;13866;50.748;12.630;2024-01-07T08:43:59;13.20;;;11.90;;
26106;SDS011;13866;50.748;12.630;2024-01-07T08:46:24;14.83;;;11.87;;
26106;SDS011;13866;50.748;12.630;2024-01-07T08:48:50;11.90;;;11.00;;
26106;SDS011;13866;50.748;12.630;2024-01-07T08:51:15;11.53;;;10.53;;
26106;SDS011;13866;50.748;12.630;2024-01-07T08:53:41;11.83;;;10.70;;
26106;SDS011;13866;50.748;12.630;2024-01-07T08:56:06;12.93;;;11.80;;
26106;SDS011;13866;50.748;12.630;2024-01-07T08:58:32;12.23;;;11.33;;
26106;SDS011;13866;50.748;12.630;2024-01-07T09:00:58;13.20;;;12.13;;
26106;SDS011;13866;50.748;12.630;2024-01-07T09:03:23;12.97;;;11.87;;
26106;SDS011;13866;50.748;12.630;2024-01-07T09:05:49;12.73;;;11.60;;
26106;SDS011;13866;50.748;12.630;2024-01-07T09:08:14;13.07;;;11.87;;
26106;SDS011;13866;50.748;12.630;2024-01-07T09:10:40;12.17;;;11.17;;
26106;SDS011;13866;50.748;12.630;2024-01-07T09:13:06;9.53;;;8.97;;
26106;SDS011;13866;50.748;12.630;2024-01-07T09:15:31;11.70;;;10.70;;
26106;SDS011;13866;50.748;12.630;2024-01-07T09:17:57;12.80;;;11.70;;
26106;SDS011;13866;50.748;12.630;2024-01-07T09:20:22;12.30;;;11.33;;
26106;SDS011;13866;50.748;12.630;2024-01-07T09:22:48;11.30;;;10.40;;
26106;SDS011;13866;50.748;12.630;2024-01-07T09:25:13;12.67;;;11.37;;
26106;SDS011;13866;50.748;12.630;2024-01-07T09:27:39;11.60;;;10.70;;
26106;SDS011;13866;50.748;12.630;2024-01-07T09:30:05;12.17;;;11.20;;
26106;SDS011;13866;50.748;12.630;2024-01-07T09:32:31;13.50;;;12.40;;
26106;SDS011;13866;50.748;12.630;2024-01-07T09:34:56;10.30;;;9.63;;
26106;SDS011;13866;50.748;12.630;2024-01-07T09:37:22;10.13;;;9.63;;
26106;SDS011;13866;50.748;12.630;2024-01-07T09:39:48;12.70;;;11.40;;
26106;SDS011;13866;50.748;12.630;2024-01-07T09:42:14;12.43;;;11.40;;
26106;SDS011;13866;50.748;12.630;2024-01-07T09:44:43;12.35;;;11.00;;
26106;SDS011;13866;50.748;12.630;2024-01-07T09:47:10;14.25;;;11.57;;
26106;SDS011;13866;50.748;12.630;2024-01-07T09:49:37;11.13;;;10.40;;
26106;SDS011;13866;50.748;12.630;2024-01-07T09:52:03;11.85;;;10.98;;
26106;SDS011;13866;50.748;12.630;2024-01-07T09:54:30;18.55;;;11.00;;
26106;SDS011;13866;50.748;12.630;2024-01-07T09:57:05;11.18;;;10.52;;
26106;SDS011;13866;50.748;12.630;2024-01-07T09:59:33;11.38;;;9.80;;
26106;SDS011;13866;50.748;12.630;2024-01-07T10:01:59;8.98;;;8.35;;
26106;SDS011;13866;50.748;12.630;2024-01-07T10:04:25;10.00;;;9.23;;
26106;SDS011;13866;50.748;12.630;2024-01-07T10:06:52;11.40;;;10.63;;
26106;SDS011;13866;50.748;12.630;2024-01-07T10:09:19;12.07;;;10.85;;
26106;SDS011;13866;50.748;12.630;2024-01-07T10:11:46;10.25;;;9.43;;
26106;SDS011;13866;50.748;12.630;2024-01-07T10:14:12;10.20;;;9.50;;
26106;SDS011;13866;50.748;12.630;2024-01-07T10:16:38;9.35;;;8.88;;
26106;SDS011;13866;50.748;12.630;2024-01-07T10:19:04;10.20;;;9.47;;
26106;SDS011;13866;50.748;12.630;2024-01-07T10:21:29;10.40;;;9.80;;
26106;SDS011;13866;50.748;12.630;2024-01-07T10:24:10;10.80;;;10.13;;
26106;SDS011;13866;50.748;12.630;2024-01-07T10:26:37;10.50;;;9.68;;
26106;SDS011;13866;50.748;12.630;2024-01-07T10:29:04;9.50;;;8.77;;
26106;SDS011;13866;50.748;12.630;2024-01-07T10:31:31;8.63;;;8.27;;
26106;SDS011;13866;50.748;12.630;2024-01-07T10:33:57;7.32;;;6.95;;
26106;SDS011;13866;50.748;12.630;2024-01-07T10:36:32;7.22;;;6.97;;
26106;SDS011;13866;50.748;12.630;2024-01-07T10:38:58;12.83;;;9.80;;
26106;SDS011;13866;50.748;12.630;2024-01-07T10:41:26;8.50;;;7.97;;
26106;SDS011;13866;50.748;12.630;2024-01-07T10:43:55;8.48;;;7.97;;
26106;SDS011;13866;50.748;12.630;2024-01-07T10:46:31;7.53;;;6.97;;
26106;SDS011;13866;50.748;12.630;2024-01-07T10:49:04;8.73;;;8.23;;
26106;SDS011;13866;50.748;12.630;2024-01-07T10:51:35;8.40;;;7.72;;
26106;SDS011;13866;50.748;12.630;2024-01-07T10:54:11;9.00;;;7.57;;
26106;SDS011;13866;50.748;12.630;2024-01-07T10:56:45;8.13;;;7.88;;
26106;SDS011;13866;50.748;12.630;2024-01-07T10:59:17;7.82;;;7.60;;
26106;SDS011;13866;50.748;12.630;2024-01-07T11:01:48;7.72;;;7.13;;
26106;SDS011;13866;50.748;12.630;2024-01-07T11:06:49;8.57;;;7.85;;
26106;SDS011;13866;50.748;12.630;2024-01-07T11:12:42;7.97;;;7.47;;
26106;SDS011;13866;50.748;12.630;2024-01-07T11:15:09;7.93;;;7.60;;
26106;SDS011;13866;50.748;12.630;2024-01-07T11:20:01;9.17;;;8.47;;
26106;SDS011;13866;50.748;12.630;2024-01-07T11:22:35;7.15;;;6.85;;
26106;SDS011;13866;50.748;12.630;2024-01-07T11:25:20;9.43;;;8.90;;
26106;SDS011;13866;50.748;12.630;2024-01-07T11:27:57;8.13;;;7.63;;
26106;SDS011;13866;50.748;12.630;2024-01-07T11:30:23;7.43;;;7.20;;
26106;SDS011;13866;50.748;12.630;2024-01-07T11:32:55;8.65;;;8.10;;
26106;SDS011;13866;50.748;12.630;2024-01-07T11:35:50;7.50;;;7.10;;
26106;SDS011;13866;50.748;12.630;2024-01-07T11:38:23;6.88;;;6.57;;
26106;SDS011;13866;50.748;12.630;2024-01-07T11:40:49;7.77;;;7.27;;
26106;SDS011;13866;50.748;12.630;2024-01-07T11:43:16;7.70;;;7.40;;
26106;SDS011;13866;50.748;12.630;2024-01-07T11:45:42;5.97;;;5.87;;
26106;SDS011;13866;50.748;12.630;2024-01-07T11:48:07;6.27;;;6.13;;
26106;SDS011;13866;50.748;12.630;2024-01-07T11:50:35;6.85;;;6.65;;
26106;SDS011;13866;50.748;12.630;2024-01-07T11:53:00;8.48;;;6.25;;
26106;SDS011;13866;50.748;12.630;2024-01-07T11:55:27;7.15;;;6.78;;
26106;SDS011;13866;50.748;12.630;2024-01-07T11:57:55;6.10;;;5.90;;
26106;SDS011;13866;50.748;12.630;2024-01-07T12:00:21;6.32;;;6.13;;
26106;SDS011;13866;50.748;12.630;2024-01-07T12:02:46;6.03;;;5.93;;
26106;SDS011;13866;50.748;12.630;2024-01-07T12:05:12;6.77;;;6.37;;
26106;SDS011;13866;50.748;12.630;2024-01-07T12:07:40;7.43;;;6.95;;
26106;SDS011;13866;50.748;12.630;2024-01-07T12:10:09;8.07;;;7.70;;
26106;SDS011;13866;50.748;12.630;2024-01-07T12:12:41;6.57;;;6.38;;
26106;SDS011;13866;50.748;12.630;2024-01-07T12:15:10;6.55;;;6.25;;
26106;SDS011;13866;50.748;12.630;2024-01-07T12:17:39;6.05;;;5.88;;
26106;SDS011;13866;50.748;12.630;2024-01-07T12:20:05;7.97;;;7.57;;
26106;SDS011;13866;50.748;12.630;2024-01-07T12:22:32;7.93;;;7.30;;
26106;SDS011;13866;50.748;12.630;2024-01-07T12:25:07;6.65;;;6.40;;
26106;SDS011;13866;50.748;12.630;2024-01-07T12:27:33;7.40;;;7.10;;
26106;SDS011;13866;50.748;12.630;2024-01-07T12:30:00;6.47;;;6.20;;
26106;SDS011;13866;50.748;12.630;2024-01-07T12:32:26;7.10;;;6.90;;
26106;SDS011;13866;50.748;12.630;2024-01-07T12:34:52;6.50;;;6.22;;
26106;SDS011;13866;50.748;12.630;2024-01-07T12:37:18;8.13;;;7.73;;
26106;SDS011;13866;50.748;12.630;2024-01-07T12:39:44;6.40;;;6.30;;
26106;SDS011;13866;50.748;12.630;2024-01-07T12:42:09;6.87;;;6.57;;
26106;SDS011;13866;50.748;12.630;2024-01-07T12:44:38;7.87;;;7.10;;
26106;SDS011;13866;50.748;12.630;2024-01-07T12:47:04;5.78;;;5.57;;
26106;SDS011;13866;50.748;12.630;2024-01-07T12:49:30;7.18;;;6.88;;
26106;SDS011;13866;50.748;12.630;2024-01-07T12:51:56;6.37;;;6.23;;
26106;SDS011;13866;50.748;12.630;2024-01-07T12:54:21;6.40;;;6.20;;
26106;SDS011;13866;50.748;12.630;2024-01-07T12:56:48;7.80;;;7.43;;
26106;SDS011;13866;50.748;12.630;2024-01-07T12:59:14;6.30;;;6.20;;
26106;SDS011;13866;50.748;12.630;2024-01-07T13:01:39;7.07;;;6.87;;
26106;SDS011;13866;50.748;12.630;2024-01-07T13:04:05;6.63;;;6.30;;
26106;SDS011;13866;50.748;12.630;2024-01-07T13:06:30;6.63;;;6.43;;
26106;SDS011;13866;50.748;12.630;2024-01-07T13:08:56;5.70;;;5.60;;
26106;SDS011;13866;50.748;12.630;2024-01-07T13:11:21;7.60;;;6.23;;
26106;SDS011;13866;50.748;12.630;2024-01-07T13:13:47;6.20;;;6.00;;
26106;SDS011;13866;50.748;12.630;2024-01-07T13:16:12;5.70;;;5.50;;
26106;SDS011;13866;50.748;12.630;2024-01-07T13:18:38;5.73;;;5.43;;
26106;SDS011;13866;50.748;12.630;2024-01-07T13:21:03;5.93;;;5.00;;
26106;SDS011;13866;50.748;12.630;2024-01-07T13:23:31;5.90;;;5.80;;
26106;SDS011;13866;50.748;12.630;2024-01-07T13:25:57;7.18;;;6.03;;
26106;SDS011;13866;50.748;12.630;2024-01-07T13:28:23;5.60;;;5.50;;
26106;SDS011;13866;50.748;12.630;2024-01-07T13:30:48;5.53;;;5.43;;
26106;SDS011;13866;50.748;12.630;2024-01-07T13:33:14;7.15;;;6.93;;
26106;SDS011;13866;50.748;12.630;2024-01-07T13:35:42;4.95;;;4.85;;
26106;SDS011;13866;50.748;12.630;2024-01-07T13:38:08;5.40;;;5.33;;
26106;SDS011;13866;50.748;12.630;2024-01-07T13:40:34;6.55;;;6.25;;
26106;SDS011;13866;50.748;12.630;2024-01-07T13:43:00;6.00;;;5.80;;
26106;SDS011;13866;50.748;12.630;2024-01-07T13:45:25;5.63;;;5.53;;
26106;SDS011;13866;50.748;12.630;2024-01-07T13:47:51;5.20;;;5.20;;
26106;SDS011;13866;50.748;12.630;2024-01-07T13:50:16;5.47;;;5.33;;
26106;SDS011;13866;50.748;12.630;2024-01-07T13:52:43;4.95;;;4.85;;
26106;SDS011;13866;50.748;12.630;2024-01-07T13:55:08;5.80;;;5.70;;
26106;SDS011;13866;50.748;12.630;2024-01-07T13:57:34;5.13;;;5.03;;
26106;SDS011;13866;50.748;12.630;2024-01-07T14:00:00;5.47;;;5.27;;
26106;SDS011;13866;50.748;12.630;2024-01-07T14:02:32;5.30;;;5.20;;
26106;SDS011;13866;50.748;12.630;2024-01-07T14:04:58;4.80;;;4.73;;
26106;SDS011;13866;50.748;12.630;2024-01-07T14:07:24;5.40;;;5.30;;
26106;SDS011;13866;50.748;12.630;2024-01-07T14:09:51;4.65;;;4.43;;
26106;SDS011;13866;50.748;12.630;2024-01-07T14:12:17;5.60;;;5.50;;
26106;SDS011;13866;50.748;12.630;2024-01-07T14:14:42;7.27;;;6.83;;
26106;SDS011;13866;50.748;12.630;2024-01-07T14:17:08;4.53;;;4.47;;
26106;SDS011;13866;50.748;12.630;2024-01-07T14:19:33;5.07;;;4.97;;